Time;durP1;ratioP1;P1;durP2;ratioP2;P2;SDS_P1;SDS_P2;PMS_P1;PMS_P2;Temp;Humidity;BMP_temperature;BMP_pressure;BME280_temperature;BME280_humidity;BME280_pressure;Samples;Min_cycle;Max_cycle;Signal;HPM_P1;HPM_P2
2023/10/24 00:00:59;;;;;;;;;;;;;;;20.85;28.81;97986.53;4958839;28;1022;-79
2023/10/24 00:03:24;;;;;;;;;;;;;;;21.11;28.66;97971.34;4954928;29;917;-78
2023/10/24 00:05:51;;;;;;;;;;;;;;;20.92;28.88;97992.00;4955383;29;1058;-79
2023/10/24 00:08:17;;;;;;;;;;;;;;;20.85;28.79;97987.31;4954878;28;1983;-78
2023/10/24 00:10:42;;;;;;;;;;;;;;;20.85;28.98;97989.34;4955178;28;950;-78
2023/10/24 00:13:08;;;;;;;;;;;;;;;20.82;28.92;97971.22;4955177;29;1046;-78
2023/10/24 00:15:33;;;;;;;;;;;;;;;20.88;29.05;97985.63;4999092;28;1120;-78
2023/10/24 00:17:59;;;;;;;;;;;;;;;20.75;28.89;97983.50;5013301;28;1000;-79
2023/10/24 00:20:24;;;;;;;;;;;;;;;21.02;28.62;97985.28;4981753;28;1096;-78
2023/10/24 00:22:50;;;;;;;;;;;;;;;20.92;28.80;97983.53;4981662;28;967;-78
2023/10/24 00:25:15;;;;;;;;;;;;;;;20.97;28.68;97983.00;4981887;28;1084;-78
2023/10/24 00:27:41;;;;;;;;;;;;;;;20.98;28.52;97984.59;4981362;28;1060;-78
2023/10/24 00:30:06;;;;;;;;;;;;;;;20.77;28.96;97980.22;4981410;28;1906;-78
2023/10/24 00:32:32;;;;;;;;;;;;;;;20.95;28.64;97977.00;4997621;28;1071;-78
2023/10/24 00:34:57;;;;;;;;;;;;;;;21.17;28.56;97969.56;4995697;28;1262;-78
2023/10/24 00:37:23;;;;;;;;;;;;;;;20.91;28.76;97973.44;5017199;28;1053;-78
2023/10/24 00:39:48;;;;;;;;;;;;;;;20.82;29.17;97968.41;5000849;28;933;-78
2023/10/24 00:42:14;;;;;;;;;;;;;;;20.84;28.66;97968.78;5017079;28;973;-78
2023/10/24 00:44:41;;;;;;;;;;;;;;;20.72;28.94;97961.75;5000983;28;1062;-78
2023/10/24 00:47:06;;;;;;;;;;;;;;;20.73;29.30;97957.72;5000590;28;1096;-78
2023/10/24 00:49:32;;;;;;;;;;;;;;;20.77;29.17;97964.06;5000131;28;1981;-78
2023/10/24 00:51:57;;;;;;;;;;;;;;;20.85;28.80;97963.91;5014788;28;928;-78
2023/10/24 00:54:23;;;;;;;;;;;;;;;21.11;28.48;97970.53;5020537;28;1264;-78
2023/10/24 00:56:48;;;;;;;;;;;;;;;20.78;29.05;97970.53;5036643;28;979;-78
2023/10/24 00:59:14;;;;;;;;;;;;;;;20.81;28.82;97970.44;5019681;28;1297;-78
2023/10/24 01:01:40;;;;;;;;;;;;;;;20.86;28.89;97968.31;5003821;28;1181;-78
2023/10/24 01:04:05;;;;;;;;;;;;;;;20.81;29.03;97964.78;5036368;28;1002;-77
2023/10/24 01:06:31;;;;;;;;;;;;;;;20.65;29.14;97964.75;5020101;28;1194;-78
2023/10/24 01:08:57;;;;;;;;;;;;;;;20.54;29.24;97967.03;5036263;28;1983;-79
2023/10/24 01:11:23;;;;;;;;;;;;;;;20.94;28.86;97958.44;5019942;28;1107;-78
2023/10/24 01:13:49;;;;;;;;;;;;;;;20.93;28.84;97970.97;5019611;28;981;-78
2023/10/24 01:16:16;;;;;;;;;;;;;;;20.69;28.94;97968.31;5003550;28;1070;-78
2023/10/24 01:18:42;;;;;;;;;;;;;;;20.78;28.75;97971.31;5019475;28;955;-79
2023/10/24 01:21:07;;;;;;;;;;;;;;;20.48;29.26;97963.16;5019831;28;1324;-78
2023/10/24 01:23:33;;;;;;;;;;;;;;;20.79;29.02;97964.44;5017823;28;1105;-78
2023/10/24 01:25:58;;;;;;;;;;;;;;;20.68;28.99;97966.72;4980364;28;1125;-78
2023/10/24 01:28:24;;;;;;;;;;;;;;;20.74;28.88;97964.16;4980551;28;1910;-79
2023/10/24 01:30:50;;;;;;;;;;;;;;;20.54;29.24;97961.38;4979164;28;1131;-78
2023/10/24 01:33:15;;;;;;;;;;;;;;;20.57;29.42;97959.69;4996526;28;1130;-79
2023/10/24 01:35:41;;;;;;;;;;;;;;;20.74;29.09;97959.31;4980475;28;1234;-77
2023/10/24 01:38:06;;;;;;;;;;;;;;;20.81;29.01;97947.81;4980327;28;1210;-78
2023/10/24 01:40:32;;;;;;;;;;;;;;;20.85;28.73;97963.91;4980341;28;1223;-78
2023/10/24 01:42:57;;;;;;;;;;;;;;;21.07;28.33;97956.47;4980221;28;1183;-78
2023/10/24 01:45:23;;;;;;;;;;;;;;;20.61;29.09;97952.72;4979375;28;1298;-79
2023/10/24 01:47:48;;;;;;;;;;;;;;;20.89;28.92;97961.78;4962732;28;1291;-78
2023/10/24 01:50:14;;;;;;;;;;;;;;;20.68;28.80;97961.06;4995404;28;1918;-79
2023/10/24 01:52:39;;;;;;;;;;;;;;;20.71;29.11;97960.16;4963252;28;1383;-78
2023/10/24 01:55:05;;;;;;;;;;;;;;;20.61;28.96;97955.56;4979056;28;1155;-78
2023/10/24 01:57:30;;;;;;;;;;;;;;;20.81;28.83;97953.47;4993986;28;1140;-78
2023/10/24 01:59:56;;;;;;;;;;;;;;;20.41;29.24;97951.97;5016058;28;1223;-78
2023/10/24 02:02:21;;;;;;;;;;;;;;;20.90;28.64;97949.25;4999737;28;1186;-78
2023/10/24 02:04:47;;;;;;;;;;;;;;;20.85;28.80;97953.38;5016944;28;888;-78
2023/10/24 02:07:12;;;;;;;;;;;;;;;20.85;28.92;97952.59;4999591;28;1205;-77
2023/10/24 02:09:39;;;;;;;;;;;;;;;20.59;29.17;97946.75;5015737;28;1980;-78
2023/10/24 02:12:04;;;;;;;;;;;;;;;20.71;28.80;97951.69;5016680;28;917;-78
2023/10/24 02:14:30;;;;;;;;;;;;;;;20.66;29.13;97951.41;5015131;28;996;-77
2023/10/24 02:16:56;;;;;;;;;;;;;;;20.72;28.80;97956.09;4999599;28;1167;-78
2023/10/24 02:19:23;;;;;;;;;;;;;;;20.71;28.85;97954.50;5015306;28;1581;-78
2023/10/24 02:21:49;;;;;;;;;;;;;;;20.90;28.65;97954.91;5015653;28;935;-78
2023/10/24 02:24:14;;;;;;;;;;;;;;;20.97;28.47;97955.50;5015276;28;905;-78
2023/10/24 02:26:40;;;;;;;;;;;;;;;20.71;28.77;97954.50;5016441;28;917;-77
2023/10/24 02:29:05;;;;;;;;;;;;;;;20.53;29.06;97960.59;5016277;28;1981;-78
2023/10/24 02:31:31;;;;;;;;;;;;;;;20.69;28.81;97953.38;5015207;28;960;-78
2023/10/24 02:33:57;;;;;;;;;;;;;;;20.76;28.70;97956.81;4977847;28;1004;-78
2023/10/24 02:36:22;;;;;;;;;;;;;;;20.70;29.02;97966.28;4994400;28;1239;-79
2023/10/24 02:38:48;;;;;;;;;;;;;;;20.76;28.98;97973.78;4994283;28;1138;-78
2023/10/24 02:41:13;;;;;;;;;;;;;;;20.92;28.46;97975.81;4993753;28;930;-78
2023/10/24 02:43:39;;;;;;;;;;;;;;;21.01;28.62;97978.06;4994049;28;1218;-78
2023/10/24 02:46:05;;;;;;;;;;;;;;;21.08;28.10;97966.53;4473248;28;15146815;-77
2023/10/24 02:48:30;;;;;;;;;;;;;;;20.66;29.04;97969.19;4978652;28;1906;-77
2023/10/24 02:50:56;;;;;;;;;;;;;;;20.49;29.21;97973.22;4978825;28;912;-78
2023/10/24 02:53:22;;;;;;;;;;;;;;;20.60;29.03;97976.59;4978863;28;1051;-78
2023/10/24 02:55:48;;;;;;;;;;;;;;;20.88;28.58;97974.31;4979012;28;1027;-78
2023/10/24 02:58:13;;;;;;;;;;;;;;;20.87;28.81;97975.56;4978651;28;966;-79
2023/10/24 03:00:39;;;;;;;;;;;;;;;20.81;28.68;97976.09;4995271;28;982;-78
2023/10/24 03:03:05;;;;;;;;;;;;;;;20.73;28.85;97983.16;4994909;28;974;-78
2023/10/24 03:05:30;;;;;;;;;;;;;;;21.12;28.51;97978.56;4982103;28;1162;-78
2023/10/24 03:07:56;;;;;;;;;;;;;;;20.72;29.06;97977.94;4982113;28;1196;-79
2023/10/24 03:10:23;;;;;;;;;;;;;;;20.61;28.94;97978.19;4981677;28;1972;-78
2023/10/24 03:12:49;;;;;;;;;;;;;;;20.46;29.41;97980.53;5000007;28;966;-78
2023/10/24 03:15:15;;;;;;;;;;;;;;;20.72;29.03;97987.19;5017701;28;975;-78
2023/10/24 03:17:40;;;;;;;;;;;;;;;20.80;28.90;97994.28;5017401;28;1206;-79
2023/10/24 03:20:06;;;;;;;;;;;;;;;20.83;28.86;97988.97;5034157;28;992;-78
2023/10/24 03:22:31;;;;;;;;;;;;;;;20.80;28.74;97982.97;4983404;28;1139;-79
2023/10/24 03:24:57;;;;;;;;;;;;;;;20.47;29.36;97981.34;5015427;28;848;-78
2023/10/24 03:27:22;;;;;;;;;;;;;;;21.01;28.58;97978.06;4994430;28;1134;-78
2023/10/24 03:29:48;;;;;;;;;;;;;;;20.74;28.75;97975.47;4977812;28;1906;-78
2023/10/24 03:32:14;;;;;;;;;;;;;;;20.71;28.84;97977.13;4958665;28;1297;-78
2023/10/24 03:34:40;;;;;;;;;;;;;;;20.91;28.84;97982.72;4958343;28;915;-78
2023/10/24 03:37:05;;;;;;;;;;;;;;;20.86;28.57;97982.47;4974571;28;954;-78
2023/10/24 03:39:31;;;;;;;;;;;;;;;21.07;28.62;97971.41;4958670;28;1221;-78
2023/10/24 03:41:56;;;;;;;;;;;;;;;21.02;28.55;97979.63;4936398;29;1037;-79
2023/10/24 03:44:25;;;;;;;;;;;;;;;20.73;28.84;97963.38;4936364;29;1098;-78
2023/10/24 03:46:50;;;;;;;;;;;;;;;20.94;28.55;97953.56;4936588;28;1208;-78
2023/10/24 03:49:16;;;;;;;;;;;;;;;20.79;28.77;97964.44;4936368;29;1971;-78
2023/10/24 03:51:41;;;;;;;;;;;;;;;20.74;28.82;97964.97;4936669;29;1126;-79
2023/10/24 03:54:07;;;;;;;;;;;;;;;20.88;28.66;97968.66;4922483;29;1141;-79
2023/10/24 03:56:32;;;;;;;;;;;;;;;20.98;28.71;97967.59;4959571;29;987;-79
2023/10/24 03:58:58;;;;;;;;;;;;;;;20.66;29.16;97960.69;4929168;29;949;-79
2023/10/24 04:01:24;;;;;;;;;;;;;;;20.63;29.18;97964.41;4940296;29;1083;-79
2023/10/24 04:03:49;;;;;;;;;;;;;;;20.59;28.94;97966.53;4940187;29;1108;-79
2023/10/24 04:06:15;;;;;;;;;;;;;;;20.64;29.16;97968.84;4924731;29;1072;-79
2023/10/24 04:08:40;;;;;;;;;;;;;;;20.71;28.99;97971.47;4941391;29;1982;-79
2023/10/24 04:11:15;;;;;;;;;;;;;;;20.68;28.94;97972.38;4943573;29;1020;-79
2023/10/24 04:13:45;;;;;;;;;;;;;;;20.76;28.89;97968.13;4974967;28;919;-79
2023/10/24 04:16:10;;;;;;;;;;;;;;;20.74;28.70;97970.63;4982653;28;933;-79
2023/10/24 04:18:36;;;;;;;;;;;;;;;20.73;28.80;97974.69;4997888;28;1153;-79
2023/10/24 04:21:01;;;;;;;;;;;;;;;20.62;29.30;97973.31;4982097;28;926;-78
2023/10/24 04:23:27;;;;;;;;;;;;;;;20.56;29.14;97975.88;4997914;28;999;-79
2023/10/24 04:25:52;;;;;;;;;;;;;;;20.61;29.31;97975.34;4966260;28;1095;-79
2023/10/24 04:28:18;;;;;;;;;;;;;;;20.96;28.65;97975.75;4997870;28;951;-79
2023/10/24 04:30:43;;;;;;;;;;;;;;;20.87;28.54;97978.38;4981691;28;1973;-79
2023/10/24 04:33:09;;;;;;;;;;;;;;;20.83;28.69;97980.50;4984973;28;1094;-79
2023/10/24 04:35:41;;;;;;;;;;;;;;;20.59;29.10;97979.88;5020397;28;942;-78
2023/10/24 04:38:07;;;;;;;;;;;;;;;20.67;28.88;97987.72;5020619;28;1039;-79
2023/10/24 04:40:35;;;;;;;;;;;;;;;20.67;29.10;97982.06;5004365;28;1591;-79
2023/10/24 04:43:01;;;;;;;;;;;;;;;21.01;28.35;97986.53;5020761;28;995;-79
2023/10/24 04:45:29;;;;;;;;;;;;;;;20.75;28.88;97994.81;5003881;28;1123;-79
2023/10/24 04:47:55;;;;;;;;;;;;;;;20.65;29.17;97990.22;5020576;28;1324;-79
2023/10/24 04:50:20;;;;;;;;;;;;;;;20.61;29.18;97997.97;5004056;28;1910;-79
2023/10/24 04:52:46;;;;;;;;;;;;;;;20.88;28.64;98006.25;5020601;28;986;-78
2023/10/24 04:55:11;;;;;;;;;;;;;;;21.14;28.06;98003.59;5020528;28;1095;-79
2023/10/24 04:57:37;;;;;;;;;;;;;;;20.72;28.71;98007.00;5003608;28;1250;-79
2023/10/24 05:00:03;;;;;;;;;;;;;;;20.71;28.65;98005.41;5003859;28;969;-79
2023/10/24 05:02:29;;;;;;;;;;;;;;;20.45;29.45;98009.22;5004100;28;1180;-79
2023/10/24 05:04:54;;;;;;;;;;;;;;;20.63;28.80;98023.00;5036329;28;999;-79
2023/10/24 05:07:20;;;;;;;;;;;;;;;20.54;29.11;98020.75;5020047;28;928;-79
2023/10/24 05:09:45;;;;;;;;;;;;;;;20.68;29.18;98028.94;5017778;28;1902;-79
2023/10/24 05:12:11;;;;;;;;;;;;;;;20.84;28.90;98035.84;5019251;28;968;-79
2023/10/24 05:14:37;;;;;;;;;;;;;;;20.55;29.14;98030.81;5018965;28;821;-79
2023/10/24 05:17:04;;;;;;;;;;;;;;;20.46;29.49;98039.06;5001528;28;915;-79
2023/10/24 05:19:30;;;;;;;;;;;;;;;20.44;29.52;98042.31;5017961;28;854;-79
2023/10/24 05:21:55;;;;;;;;;;;;;;;20.65;29.03;98052.41;5018155;28;943;-78
2023/10/24 05:24:21;;;;;;;;;;;;;;;20.61;29.07;98050.88;5017757;28;1033;-79
2023/10/24 05:26:47;;;;;;;;;;;;;;;20.42;29.33;98049.66;4999861;28;977;-79
2023/10/24 05:29:12;;;;;;;;;;;;;;;20.51;29.25;98053.50;5000036;28;1906;-79
2023/10/24 05:31:38;;;;;;;;;;;;;;;20.84;28.71;98061.31;5016477;28;912;-79
2023/10/24 05:34:03;;;;;;;;;;;;;;;20.97;28.48;98062.19;4996445;28;926;-79
2023/10/24 05:36:29;;;;;;;;;;;;;;;20.70;28.92;98060.38;4996935;28;948;-78
2023/10/24 05:38:55;;;;;;;;;;;;;;;20.48;29.53;98064.91;4996702;28;1018;-79
2023/10/24 05:41:21;;;;;;;;;;;;;;;20.80;29.39;98067.81;4980131;28;1039;-79
2023/10/24 05:43:46;;;;;;;;;;;;;;;20.84;29.22;98072.63;4964546;28;1228;-79
2023/10/24 05:46:12;;;;;;;;;;;;;;;20.90;29.29;98074.47;4999815;28;1103;-79
2023/10/24 05:48:39;;;;;;;;;;;;;;;20.62;29.79;98069.44;4999441;28;1915;-79
2023/10/24 05:51:07;;;;;;;;;;;;;;;20.74;29.27;98072.41;5000043;28;1215;-79
2023/10/24 05:53:33;;;;;;;;;;;;;;;20.57;29.86;98067.91;4999512;28;995;-79
2023/10/24 05:55:58;;;;;;;;;;;;;;;20.83;29.43;98073.81;4983546;28;921;-78
2023/10/24 05:58:24;;;;;;;;;;;;;;;20.74;29.40;98072.41;4982013;28;980;-79
2023/10/24 06:00:50;;;;;;;;;;;;;;;20.92;29.40;98082.50;5003109;28;932;-79
2023/10/24 06:03:15;;;;;;;;;;;;;;;20.80;29.51;98070.66;5002605;28;983;-78
2023/10/24 06:05:41;;;;;;;;;;;;;;;20.89;29.32;98089.06;5035980;28;876;-77
2023/10/24 06:08:06;;;;;;;;;;;;;;;21.08;28.97;98091.03;5002498;28;960;-79
2023/10/24 06:10:32;;;;;;;;;;;;;;;20.95;29.36;98076.00;5033492;28;1971;-78
2023/10/24 06:12:57;;;;;;;;;;;;;;;20.72;29.63;98091.81;4983030;28;1330;-78
2023/10/24 06:15:23;;;;;;;;;;;;;;;20.80;29.76;98093.28;4999079;28;1252;-79
2023/10/24 06:17:48;;;;;;;;;;;;;;;20.79;29.39;98100.16;4981996;28;1181;-78
2023/10/24 06:20:14;;;;;;;;;;;;;;;20.95;29.53;98092.97;5015442;28;1003;-78
2023/10/24 06:22:40;;;;;;;;;;;;;;;21.07;29.20;98100.75;4998770;28;971;-78
2023/10/24 06:25:05;;;;;;;;;;;;;;;20.90;29.28;98101.97;4995611;28;1226;-79
2023/10/24 06:27:31;;;;;;;;;;;;;;;20.88;29.42;98104.41;4979954;28;1036;-79
2023/10/24 06:29:57;;;;;;;;;;;;;;;20.91;29.57;98110.00;4979270;28;1910;-79
2023/10/24 06:32:22;;;;;;;;;;;;;;;20.90;29.28;98107.63;4959755;28;1379;-79
2023/10/24 06:34:48;;;;;;;;;;;;;;;21.10;29.24;98116.88;4959694;28;992;-79
2023/10/24 06:37:13;;;;;;;;;;;;;;;21.00;29.47;98123.56;4976171;28;922;-79
2023/10/24 06:39:39;;;;;;;;;;;;;;;20.85;29.46;98127.94;4975916;28;1337;-79
2023/10/24 06:42:04;;;;;;;;;;;;;;;20.75;29.79;98139.03;4959888;28;1245;-79
2023/10/24 06:44:30;;;;;;;;;;;;;;;21.07;29.55;98146.03;4983263;28;1086;-79
2023/10/24 06:46:56;;;;;;;;;;;;;;;20.96;29.39;98139.81;4975774;28;920;-78
2023/10/24 06:49:22;;;;;;;;;;;;;;;20.91;29.72;98118.50;4975707;28;1898;-79
2023/10/24 06:51:47;;;;;;;;;;;;;;;20.89;29.93;98109.66;4937355;29;1132;-79
2023/10/24 06:54:13;;;;;;;;;;;;;;;20.90;30.09;98110.44;4923333;29;940;-79
2023/10/24 06:56:38;;;;;;;;;;;;;;;21.10;29.38;98107.59;4946164;29;984;-79
2023/10/24 06:59:03;;;;;;;;;;;;;;;20.81;30.04;98111.81;4940405;28;1158;-79
2023/10/24 07:01:29;;;;;;;;;;;;;;;20.55;30.29;98115.63;4940556;29;968;-79
2023/10/24 07:03:55;;;;;;;;;;;;;;;20.79;30.35;98119.16;4970185;28;975;-79
2023/10/24 07:06:21;;;;;;;;;;;;;;;20.90;30.00;98118.94;4959778;28;1060;-79
2023/10/24 07:08:48;;;;;;;;;;;;;;;20.83;29.90;98119.06;4959073;28;1899;-78
2023/10/24 07:11:14;;;;;;;;;;;;;;;20.91;30.10;98109.22;4959924;28;1064;-78
2023/10/24 07:13:39;;;;;;;;;;;;;;;20.91;30.15;98104.34;4959576;28;1073;-79
2023/10/24 07:16:14;;;;;;;;;;;;;;;20.83;30.27;98111.41;4959526;28;1197;-79
2023/10/24 07:18:40;;;;;;;;;;;;;;;20.86;29.98;98118.22;4959425;28;1170;-79
2023/10/24 07:21:05;;;;;;;;;;;;;;;21.09;29.81;98115.28;4975615;28;993;-78
2023/10/24 07:23:31;;;;;;;;;;;;;;;21.10;29.51;98116.88;4975607;28;1021;-79
2023/10/24 07:25:56;;;;;;;;;;;;;;;21.07;29.51;98117.72;4959704;28;1164;-79
2023/10/24 07:28:22;;;;;;;;;;;;;;;21.11;29.53;98118.47;4962140;28;978;-79
2023/10/24 07:30:51;;;;;;;;;;;;;;;21.19;29.47;98119.91;4995655;28;1910;-79
2023/10/24 07:33:18;;;;;;;;;;;;;;;21.04;29.82;98118.63;4963701;28;1178;-79
2023/10/24 07:35:44;;;;;;;;;;;;;;;21.27;29.50;98114.84;4995728;28;857;-79
2023/10/24 07:38:10;;;;;;;;;;;;;;;20.94;29.91;98122.50;4995492;28;924;-79
2023/10/24 07:40:35;;;;;;;;;;;;;;;20.92;29.94;98122.13;4978953;28;1017;-79
2023/10/24 07:43:01;;;;;;;;;;;;;;;20.69;30.14;98109.69;4996605;28;913;-79
2023/10/24 07:45:26;;;;;;;;;;;;;;;20.97;29.82;98113.13;5025465;28;1022;-79
2023/10/24 07:47:52;;;;;;;;;;;;;;;20.88;29.89;98118.56;5002216;28;924;-79
2023/10/24 07:50:17;;;;;;;;;;;;;;;21.03;29.73;98114.19;5002090;28;1914;-79
2023/10/24 07:52:43;;;;;;;;;;;;;;;20.80;30.18;98109.44;5002246;28;1531;-79
2023/10/24 07:55:08;;;;;;;;;;;;;;;20.96;29.98;98111.53;4997561;28;929;-78
2023/10/24 07:57:34;;;;;;;;;;;;;;;21.11;29.57;98107.13;4997647;28;1213;-78
2023/10/24 07:59:59;;;;;;;;;;;;;;;21.27;29.47;98101.50;4997237;28;1037;-79
2023/10/24 08:02:25;;;;;;;;;;;;;;;21.11;29.66;98095.81;5013983;28;970;-78
2023/10/24 08:04:51;;;;;;;;;;;;;;;21.09;29.85;98087.00;4998143;28;934;-78
2023/10/24 08:07:16;;;;;;;;;;;;;;;20.82;30.27;98092.81;4981614;28;1192;-78
2023/10/24 08:09:42;;;;;;;;;;;;;;;20.98;30.20;98092.06;4981357;28;1986;-79
2023/10/24 08:12:08;;;;;;;;;;;;;;;20.73;30.53;98093.44;4994269;28;1084;-79
2023/10/24 08:14:33;;;;;;;;;;;;;;;20.90;30.07;98090.66;4978015;28;1167;-79
2023/10/24 08:16:59;;;;;;;;;;;;;;;20.90;30.29;98085.00;4977987;28;929;-78
2023/10/24 08:19:24;;;;;;;;;;;;;;;21.05;29.67;98086.25;4977776;28;1117;-79
2023/10/24 08:21:50;;;;;;;;;;;;;;;21.15;29.69;98090.88;4994588;28;964;-78
2023/10/24 08:24:16;;;;;;;;;;;;;;;21.08;29.75;98091.03;4994938;28;944;-79
2023/10/24 08:26:41;;;;;;;;;;;;;;;21.06;29.97;98087.84;4981728;28;920;-78
2023/10/24 08:29:07;;;;;;;;;;;;;;;20.90;30.00;98085.00;4981489;28;1903;-81
2023/10/24 08:31:32;;;;;;;;;;;;;;;21.28;29.72;98088.94;5287328;22;3924;-73
2023/10/24 08:33:58;;;;;;;;;;;;;;;22.10;29.70;98080.41;5002255;28;1225;-73
2023/10/24 08:36:23;;;;;;;;;;;;;;;22.36;30.37;98082.13;5018717;28;1107;-73
2023/10/24 08:38:49;;;;;;;;;;;;;;;21.89;31.03;98072.50;5002196;28;1218;-72
2023/10/24 08:41:14;;;;;;;;;;;;;;;21.59;31.39;98068.81;5021762;28;754;-73
2023/10/24 08:43:40;;;;;;;;;;;;;;;21.39;31.79;98070.94;5179566;22;3699;-76
2023/10/24 08:46:05;;;;;;;;;;;;;;;22.03;32.14;98069.28;5025118;28;1214;-76
2023/10/24 08:48:31;;;;;;;;;;;;;;;22.06;32.04;98068.38;5041752;28;868;-78
2023/10/24 08:50:56;;;;;;;;;;;;;;;22.06;32.37;98068.38;5042040;28;1902;-78
2023/10/24 08:53:22;;;;;;;;;;;;;;;22.29;31.95;98071.00;5041855;28;845;-79
2023/10/24 08:55:54;;;;;;;;;;;;;;;21.96;31.54;98069.47;5042028;28;1179;-78
2023/10/24 08:58:19;;;;;;;;;;;;;;;21.53;31.69;98067.75;5025299;28;814;-79
2023/10/24 09:00:48;;;;;;;;;;;;;;;21.43;31.43;98063.16;5059331;28;695;-79
2023/10/24 09:03:15;;;;;;;;;;;;;;;21.50;31.15;98060.13;5041532;28;723;-79
2023/10/24 09:05:42;;;;;;;;;;;;;;;21.69;30.58;98055.63;5041680;28;853;-79
2023/10/24 09:08:07;;;;;;;;;;;;;;;21.74;30.27;98053.03;5041672;28;805;-79
2023/10/24 09:10:33;;;;;;;;;;;;;;;21.64;30.14;98048.44;5041337;28;1976;-79
2023/10/24 09:12:58;;;;;;;;;;;;;;;21.31;30.45;98062.63;5041133;28;833;-78
2023/10/24 09:15:24;;;;;;;;;;;;;;;21.44;29.96;98050.59;5041640;28;755;-78
2023/10/24 09:17:49;;;;;;;;;;;;;;;21.16;30.10;98052.06;5059115;28;833;-79
2023/10/24 09:20:18;;;;;;;;;;;;;;;21.41;29.62;98045.81;5059342;28;719;-78
2023/10/24 09:22:44;;;;;;;;;;;;;;;21.33;29.37;98050.84;5041090;28;829;-79
2023/10/24 09:25:09;;;;;;;;;;;;;;;21.24;29.43;98042.97;5059144;28;735;-79
2023/10/24 09:27:35;;;;;;;;;;;;;;;21.28;29.27;98042.88;5058966;28;765;-79
2023/10/24 09:30:11;;;;;;;;;;;;;;;21.25;29.08;98041.72;5040323;28;1910;-79
2023/10/24 09:32:38;;;;;;;;;;;;;;;21.40;28.67;98039.38;5041352;28;826;-78
2023/10/24 09:35:04;;;;;;;;;;;;;;;21.44;28.80;98037.22;5058747;28;722;-79
2023/10/24 09:37:29;;;;;;;;;;;;;;;21.38;28.75;98035.38;5023477;28;943;-78
2023/10/24 09:39:55;;;;;;;;;;;;;;;21.20;28.88;98036.59;5040673;28;739;-79
2023/10/24 09:42:27;;;;;;;;;;;;;;;21.27;28.53;98019.44;5041081;28;794;-79
2023/10/24 09:44:54;;;;;;;;;;;;;;;21.24;28.64;98020.34;5058606;28;1033;-78
2023/10/24 09:47:20;;;;;;;;;;;;;;;21.31;28.58;98023.00;5041015;28;735;-79
2023/10/24 09:49:46;;;;;;;;;;;;;;;21.32;28.37;98015.31;5023945;28;1906;-79
2023/10/24 09:52:11;;;;;;;;;;;;;;;21.07;28.73;98010.22;5039616;28;790;-78
2023/10/24 09:54:38;;;;;;;;;;;;;;;21.21;28.30;98012.72;5058698;28;806;-79
2023/10/24 09:57:03;;;;;;;;;;;;;;;21.31;28.04;98003.19;5040919;28;688;-78
2023/10/24 09:59:29;;;;;;;;;;;;;;;21.43;27.89;98003.72;5058215;28;825;-78
2023/10/24 10:01:54;;;;;;;;;;;;;;;21.20;28.34;98008.31;5058482;28;781;-78
2023/10/24 10:04:20;;;;;;;;;;;;;;;21.41;27.98;98000.53;5040895;28;794;-78
2023/10/24 10:06:45;;;;;;;;;;;;;;;21.30;27.93;97995.94;5040314;28;762;-78
2023/10/24 10:09:11;;;;;;;;;;;;;;;21.44;27.56;97993.97;5040367;28;1971;-78
2023/10/24 10:11:36;;;;;;;;;;;;;;;21.41;27.81;97994.88;5019563;28;1185;-78
2023/10/24 10:14:09;;;;;;;;;;;;;;;21.02;28.30;97997.41;5019054;28;795;-78
2023/10/24 10:16:39;;;;;;;;;;;;;;;21.16;27.88;97989.81;5018351;28;1561;-78
2023/10/24 10:19:14;;;;;;;;;;;;;;;21.21;27.94;97981.59;5019211;28;826;-78
2023/10/24 10:21:58;;;;;;;;;;;;;;;21.09;28.24;97990.78;5019617;28;857;-78
2023/10/24 10:24:28;;;;;;;;;;;;;;;21.13;28.15;97994.31;5015481;28;885;-78
2023/10/24 10:27:12;;;;;;;;;;;;;;;20.96;28.10;97987.06;4999391;28;827;-79
2023/10/24 10:29:56;;;;;;;;;;;;;;;21.22;27.90;97977.50;4998994;28;1894;-79
2023/10/24 10:32:41;;;;;;;;;;;;;;;21.09;27.98;97976.66;5016288;28;1178;-78
2023/10/24 10:35:06;;;;;;;;;;;;;;;20.92;28.05;97981.47;4997860;28;1452;-75
2023/10/24 10:37:35;;;;;;;;;;;;;;;21.20;28.41;97974.34;5015585;28;1485;-80
2023/10/24 10:40:02;;;;;;;;;;;;;;;21.20;28.35;97962.22;5015489;28;1540;-79
2023/10/24 10:42:47;;;;;;;;;;;;;;;21.32;27.90;97970.81;4999903;28;1411;-79
2023/10/24 10:45:22;;;;;;;;;;;;;;;21.57;27.78;97958.03;4990426;28;1368;-79
2023/10/24 10:47:48;;;;;;;;;;;;;;;21.51;27.69;97954.16;4995207;28;1601;-79
2023/10/24 10:50:13;;;;;;;;;;;;;;;21.66;27.30;97955.38;4977395;28;1915;-80
2023/10/24 10:52:39;;;;;;;;;;;;;;;21.70;27.28;97956.03;4977998;28;1419;-79
2023/10/24 10:55:22;;;;;;;;;;;;;;;21.53;27.58;97952.47;5016322;28;1849;-79
2023/10/24 10:57:55;;;;;;;;;;;;;;;21.87;27.02;97942.66;5045062;28;1602;-72
2023/10/24 11:00:21;;;;;;;;;;;;;;;21.81;27.46;97950.91;5039530;28;1370;-79
2023/10/24 11:03:22;;;;;;;;;;;;;;;21.30;27.67;97901.75;5019572;28;1078;-79
2023/10/24 11:05:48;;;;;;;;;;;;;;;21.63;27.64;97952.63;4957470;28;986;-79
2023/10/24 11:08:17;;;;;;;;;;;;;;;21.55;27.85;97943.53;4956673;28;992;-79
2023/10/24 11:10:54;;;;;;;;;;;;;;;21.71;27.54;97940.66;4956663;28;1944;-79
2023/10/24 11:13:38;;;;;;;;;;;;;;;21.36;27.80;97930.31;4956438;28;988;-78
2023/10/24 11:16:07;;;;;;;;;;;;;;;21.14;28.09;97930.84;4940773;29;1237;-79
2023/10/24 11:18:33;;;;;;;;;;;;;;;21.22;28.11;97949.22;4940373;28;1294;-79
2023/10/24 11:20:59;;;;;;;;;;;;;;;21.36;27.72;97935.97;4940705;29;1333;-79
2023/10/24 11:23:25;;;;;;;;;;;;;;;21.32;27.86;97931.19;4937156;29;1061;-79
2023/10/24 11:25:50;;;;;;;;;;;;;;;21.12;28.13;97924.81;4921512;29;1329;-79
2023/10/24 11:28:16;;;;;;;;;;;;;;;21.40;27.74;97925.31;4921325;29;1059;-79
2023/10/24 11:30:41;;;;;;;;;;;;;;;21.37;27.85;97920.56;4921564;29;1907;-78
2023/10/24 11:33:07;;;;;;;;;;;;;;;21.00;28.34;97920.69;4937239;29;1220;-79
2023/10/24 11:35:32;;;;;;;;;;;;;;;21.04;28.10;97926.25;4921700;29;827;-79
2023/10/24 11:37:58;;;;;;;;;;;;;;;21.24;27.73;97935.44;4975676;28;821;-79
2023/10/24 11:40:23;;;;;;;;;;;;;;;21.27;27.94;97928.88;5005062;28;898;-79
2023/10/24 11:42:49;;;;;;;;;;;;;;;21.21;27.72;97935.53;5015042;28;1127;-79
2023/10/24 11:45:14;;;;;;;;;;;;;;;21.30;27.81;97925.19;5014289;28;1215;-78
2023/10/24 11:47:40;;;;;;;;;;;;;;;21.11;28.08;97923.25;5014819;28;1202;-79
2023/10/24 11:50:05;;;;;;;;;;;;;;;21.04;28.06;97929.09;5014750;28;1997;-78
2023/10/24 11:52:31;;;;;;;;;;;;;;;21.05;28.11;97922.97;5014883;28;1286;-79
2023/10/24 11:54:57;;;;;;;;;;;;;;;21.03;28.01;97924.66;5029524;28;949;-79
2023/10/24 11:57:22;;;;;;;;;;;;;;;21.19;28.07;97921.81;5035355;28;723;-79
2023/10/24 11:59:51;;;;;;;;;;;;;;;21.05;27.84;97916.53;5018490;28;842;-78
2023/10/24 12:02:17;;;;;;;;;;;;;;;21.42;27.42;97917.22;5035145;28;813;-78
2023/10/24 12:04:47;;;;;;;;;;;;;;;21.21;27.91;97918.53;5018579;28;905;-78
2023/10/24 12:07:13;;;;;;;;;;;;;;;20.73;28.60;97906.03;5035314;28;842;-79
2023/10/24 12:09:38;;;;;;;;;;;;;;;20.88;28.25;97897.97;5018603;28;1914;-78
2023/10/24 12:12:04;;;;;;;;;;;;;;;21.01;27.96;97905.28;5018756;28;1448;-79
2023/10/24 12:14:30;;;;;;;;;;;;;;;21.00;27.98;97902.91;5019333;28;829;-79
2023/10/24 12:16:57;;;;;;;;;;;;;;;21.16;27.68;97894.41;5038990;28;882;-79
2023/10/24 12:19:22;;;;;;;;;;;;;;;21.02;28.01;97900.44;5038876;28;813;-79
2023/10/24 12:21:48;;;;;;;;;;;;;;;20.86;28.11;97903.28;5039152;28;798;-79
2023/10/24 12:24:13;;;;;;;;;;;;;;;20.86;28.04;97897.63;5022525;28;1158;-79
2023/10/24 12:26:39;;;;;;;;;;;;;;;20.99;27.70;97890.03;5022535;28;815;-79
2023/10/24 12:29:09;;;;;;;;;;;;;;;20.86;27.89;97897.63;5039019;28;1985;-78
2023/10/24 12:31:35;;;;;;;;;;;;;;;21.19;27.53;97904.03;5017869;28;1150;-79
2023/10/24 12:34:01;;;;;;;;;;;;;;;20.86;28.02;97903.28;5018185;28;768;-78
2023/10/24 12:36:26;;;;;;;;;;;;;;;21.10;27.75;97907.50;5018358;28;931;-79
2023/10/24 12:38:52;;;;;;;;;;;;;;;21.12;27.86;97899.34;5017641;28;724;-79
2023/10/24 12:41:17;;;;;;;;;;;;;;;20.87;27.85;97899.19;5017816;28;1087;-79
2023/10/24 12:43:42;;;;;;;;;;;;;;;21.07;27.48;97891.41;5017594;28;786;-79
2023/10/24 12:46:08;;;;;;;;;;;;;;;21.14;27.41;97896.06;5017223;28;1073;-79
2023/10/24 12:48:34;;;;;;;;;;;;;;;21.07;27.62;97886.53;5001138;28;1279;-79
2023/10/24 12:50:59;;;;;;;;;;;;;;;20.91;27.81;97891.44;5017676;28;1910;-79
2023/10/24 12:53:25;;;;;;;;;;;;;;;21.03;27.78;97896.34;5017799;28;762;-79
2023/10/24 12:55:50;;;;;;;;;;;;;;;21.04;27.43;97895.94;5017457;28;934;-78